Main page
METAR-TAF:

METAR-TAF

Airports :

Bamako–Modibo Keïta International Airport

Bamako, Mali

latitude: 12-32N, longitude: 007-57W, elevation: 380 m

Current weather observation

The report was made 44 minutes ago, at 11:00 UTC
Wind 11 kt from the East/Northeast
Temperature 34°C
Humidity 12%
Pressure 1014 hPa
Visibility: 8000 m

METAR: GABS 161100Z 06011KT 8000 NSC 34/01 Q1014 NOSIG

Time: 11:44 (11:44 UTC)

Forecast

The report was made 6 hours and 39 minutes ago, at 05:05 UTC
Forecast valid from 16 at 06 UTC to 17 at 12 UTC
Wind 10 kt from the Northeast
Visibility: 8000 m
Probability 40% :
Temporary
from 16 at 07 UTC to 16 at 12 UTC
Visibility: 4500 m
widespread dust,

TAF: GABS 160505Z 1606/1712 04010KT 8000 NSC PROB40 TEMPO 1607/1612 4500 DU

Weather observations and forecasts of more than 4000 airports (METAR and TAF reports).

The available stations are represented by yellow and red dots on the map.

Hover mouse over dot to see the name of the station.

Then click to see weather observations and forecasts.

To change the map : click on the green buttons with a black cross to zoom in, on the green button with a dash to zoom out, or on the green arrows for adjacent maps.


METAR-TAF: